createdAt,value
2022-09-27T00:08:43.455Z,71.7
2022-09-27T00:24:26.209Z,71.93
2022-09-27T00:40:09.110Z,71.94
2022-09-27T00:55:52.107Z,71.92
2022-09-27T01:11:34.873Z,71.79
2022-09-27T01:27:17.871Z,70.99
2022-09-27T01:43:00.825Z,70.41
2022-09-27T01:58:43.689Z,69.8
2022-09-27T02:14:26.009Z,69.65
2022-09-27T02:30:08.599Z,69.64
2022-09-27T02:45:50.942Z,70.08
2022-09-27T03:01:33.294Z,69.97
2022-09-27T03:17:15.643Z,69.22
2022-09-27T03:32:58.482Z,68.65
2022-09-27T03:48:41.227Z,71.87
2022-09-27T04:04:23.708Z,74.45
2022-09-27T04:20:06.713Z,75.77
2022-09-27T04:35:49.540Z,78.33
2022-09-27T04:51:31.644Z,78.11
2022-09-27T05:07:14.639Z,79.41
2022-09-27T05:22:57.279Z,80.72
2022-09-27T05:38:39.507Z,83.21
2022-09-27T05:54:22.226Z,85.49
2022-09-27T06:10:04.371Z,86.95
2022-09-27T06:25:47.395Z,88.67
2022-09-27T06:41:29.680Z,89.82
2022-09-27T06:57:12.746Z,90.45
2022-09-27T07:12:55.045Z,91.22
2022-09-27T07:28:37.339Z,91.47
2022-09-27T07:44:20.175Z,91.41
2022-09-27T08:00:02.932Z,91.02
2022-09-27T08:15:45.546Z,90.82
2022-09-27T08:31:28.555Z,91.51
2022-09-27T08:47:10.892Z,90.56
2022-09-27T09:02:53.482Z,89.92
2022-09-27T09:18:35.790Z,89.84
2022-09-27T09:34:18.744Z,89.75
2022-09-27T09:50:01.735Z,90.34
2022-09-27T10:05:44.135Z,89.3
2022-09-27T10:21:26.689Z,88.36
2022-09-27T10:37:09.400Z,87.16
2022-09-27T10:37:56.714Z,86.5
2022-09-27T10:53:39.625Z,78.44
2022-09-27T11:09:21.660Z,74.39
2022-09-27T11:25:04.098Z,73.73
2022-09-27T11:40:46.581Z,70.9
2022-09-27T11:56:28.768Z,70.67
2022-09-27T12:12:11.094Z,80.7
2022-09-27T12:27:54.291Z,86.08
2022-09-27T12:43:36.499Z,90.18
2022-09-27T12:59:18.794Z,90.29
2022-09-27T13:15:01.734Z,85.5
2022-09-27T13:30:44.561Z,80.97
2022-09-27T13:46:27.521Z,83.68
2022-09-27T14:02:09.884Z,80.12
2022-09-27T14:17:52.600Z,79.54
2022-09-27T14:33:35.217Z,79.05
2022-09-27T14:49:17.434Z,79.5
2022-09-27T15:05:00.009Z,75.76
2022-09-27T15:20:42.794Z,74.75
2022-09-27T15:36:25.602Z,78.21
2022-09-27T15:52:08.392Z,81.27
2022-09-27T16:07:50.721Z,83.81
2022-09-27T16:23:33.398Z,85.12
2022-09-27T16:39:15.802Z,85.22
2022-09-27T16:54:57.917Z,86.28
2022-09-27T17:10:41.026Z,87.42
2022-09-27T17:26:24.067Z,88.7
2022-09-27T17:42:06.343Z,90.14
2022-09-27T17:57:49.124Z,88.95
2022-09-27T18:13:31.293Z,90.38
2022-09-27T18:29:13.509Z,91.49
2022-09-27T18:44:55.939Z,91.58
2022-09-27T19:00:38.285Z,90.62
2022-09-27T19:16:21.235Z,90.52
2022-09-27T19:32:04.277Z,88.89
2022-09-27T19:47:47.231Z,88.96
2022-09-27T20:03:30.098Z,87.17
2022-09-27T20:19:12.786Z,86.57
2022-09-27T20:34:55.272Z,87.16
2022-09-27T20:50:38.287Z,88.27
2022-09-27T21:06:21.264Z,89.61
2022-09-27T21:22:04.000Z,89.24
2022-09-27T21:37:46.846Z,88.26
2022-09-27T21:53:29.505Z,89.59
2022-09-27T22:09:11.923Z,89.27
2022-09-27T22:24:54.842Z,89.45
2022-09-27T22:40:37.085Z,89.72
2022-09-27T22:56:19.821Z,89.51
2022-09-27T23:12:02.537Z,90.02
2022-09-27T23:27:45.424Z,91.11
2022-09-27T23:43:27.938Z,92.85
2022-09-27T23:59:10.441Z,93.34
